sensor_id;sensor_type;location;lat;lon;timestamp;pressure;altitude;pressure_sealevel;temperature;humidity
76424;BME280;65257;52.104;4.268;2024-02-04T00:01:03;102313.91;;;9.08;87.21
76424;BME280;65257;52.104;4.268;2024-02-04T00:03:28;102318.25;;;9.09;87.79
76424;BME280;65257;52.104;4.268;2024-02-04T00:05:59;102317.41;;;9.08;87.50
76424;BME280;65257;52.104;4.268;2024-02-04T00:08:25;102317.31;;;9.10;87.93
76424;BME280;65257;52.104;4.268;2024-02-04T00:10:53;102313.72;;;9.11;87.64
76424;BME280;65257;52.104;4.268;2024-02-04T00:13:19;102320.72;;;9.12;87.21
76424;BME280;65257;52.104;4.268;2024-02-04T00:15:44;102312.75;;;9.12;87.29
76424;BME280;65257;52.104;4.268;2024-02-04T00:18:09;102303.00;;;9.12;87.32
76424;BME280;65257;52.104;4.268;2024-02-04T00:20:35;102305.66;;;9.12;87.72
76424;BME280;65257;52.104;4.268;2024-02-04T00:23:03;102301.22;;;9.13;87.53
76424;BME280;65257;52.104;4.268;2024-02-04T00:25:28;102286.97;;;9.14;87.51
76424;BME280;65257;52.104;4.268;2024-02-04T00:27:59;102303.75;;;9.14;87.27
76424;BME280;65257;52.104;4.268;2024-02-04T00:30:25;102313.50;;;9.14;87.61
76424;BME280;65257;52.104;4.268;2024-02-04T00:32:51;102310.97;;;9.12;87.17
76424;BME280;65257;52.104;4.268;2024-02-04T00:35:17;102305.94;;;9.08;87.34
76424;BME280;65257;52.104;4.268;2024-02-04T00:37:42;102306.13;;;9.05;87.10
76424;BME280;65257;52.104;4.268;2024-02-04T00:40:10;102299.19;;;9.02;87.01
76424;BME280;65257;52.104;4.268;2024-02-04T00:42:35;102282.41;;;9.02;87.25
76424;BME280;65257;52.104;4.268;2024-02-04T00:45:01;102276.91;;;9.05;87.12
76424;BME280;65257;52.104;4.268;2024-02-04T00:47:29;102272.28;;;9.08;87.41
76424;BME280;65257;52.104;4.268;2024-02-04T00:49:54;102258.06;;;9.09;87.27
76424;BME280;65257;52.104;4.268;2024-02-04T00:52:20;102256.25;;;9.10;87.23
76424;BME280;65257;52.104;4.268;2024-02-04T00:54:45;102261.41;;;9.13;87.38
76424;BME280;65257;52.104;4.268;2024-02-04T00:57:11;102270.97;;;9.15;87.08
76424;BME280;65257;52.104;4.268;2024-02-04T00:59:39;102270.03;;;9.16;87.70
76424;BME280;65257;52.104;4.268;2024-02-04T01:02:07;102273.53;;;9.17;87.54
76424;BME280;65257;52.104;4.268;2024-02-04T01:04:36;102276.19;;;9.17;87.53
76424;BME280;65257;52.104;4.268;2024-02-04T01:07:04;102282.34;;;9.17;87.82
76424;BME280;65257;52.104;4.268;2024-02-04T01:09:33;102285.88;;;9.18;87.32
76424;BME280;65257;52.104;4.268;2024-02-04T01:11:58;102280.66;;;9.16;87.24
76424;BME280;65257;52.104;4.268;2024-02-04T01:14:33;102285.09;;;9.16;87.08
76424;BME280;65257;52.104;4.268;2024-02-04T01:17:02;102287.84;;;9.14;87.07
76424;BME280;65257;52.104;4.268;2024-02-04T01:19:30;102284.44;;;9.12;87.12
76424;BME280;65257;52.104;4.268;2024-02-04T01:21:59;102279.22;;;9.11;87.57
76424;BME280;65257;52.104;4.268;2024-02-04T01:24:24;102285.47;;;9.10;87.39
76424;BME280;65257;52.104;4.268;2024-02-04T01:26:51;102284.59;;;9.09;87.20
76424;BME280;65257;52.104;4.268;2024-02-04T01:29:16;102288.97;;;9.10;87.13
76424;BME280;65257;52.104;4.268;2024-02-04T01:31:42;102298.84;;;9.08;87.14
76424;BME280;65257;52.104;4.268;2024-02-04T01:34:07;102292.66;;;9.08;87.09
76424;BME280;65257;52.104;4.268;2024-02-04T01:36:41;102292.75;;;9.06;87.48
76424;BME280;65257;52.104;4.268;2024-02-04T01:39:07;102293.69;;;9.05;86.90
76424;BME280;65257;52.104;4.268;2024-02-04T01:41:32;102285.75;;;9.05;87.51
76424;BME280;65257;52.104;4.268;2024-02-04T01:43:58;102291.06;;;9.05;87.54
76424;BME280;65257;52.104;4.268;2024-02-04T01:46:26;102290.09;;;9.06;87.40
76424;BME280;65257;52.104;4.268;2024-02-04T01:48:52;102285.75;;;9.05;87.18
76424;BME280;65257;52.104;4.268;2024-02-04T01:51:21;102284.78;;;9.06;86.93
76424;BME280;65257;52.104;4.268;2024-02-04T01:53:53;102277.78;;;9.05;87.58
76424;BME280;65257;52.104;4.268;2024-02-04T01:56:19;102286.50;;;9.07;87.59
76424;BME280;65257;52.104;4.268;2024-02-04T01:58:51;102283.75;;;9.09;87.34
76424;BME280;65257;52.104;4.268;2024-02-04T02:01:19;102290.88;;;9.08;87.23
76424;BME280;65257;52.104;4.268;2024-02-04T02:03:47;102297.88;;;9.09;87.24
76424;BME280;65257;52.104;4.268;2024-02-04T02:06:15;102308.47;;;9.09;87.37
76424;BME280;65257;52.104;4.268;2024-02-04T02:08:41;102301.38;;;9.10;87.26
76424;BME280;65257;52.104;4.268;2024-02-04T02:11:40;102307.44;;;9.12;87.28
76424;BME280;65257;52.104;4.268;2024-02-04T02:14:11;102301.28;;;9.11;87.28
76424;BME280;65257;52.104;4.268;2024-02-04T02:16:41;102299.59;;;9.10;87.41
76424;BME280;65257;52.104;4.268;2024-02-04T02:22:29;102286.31;;;9.10;87.50
76424;BME280;65257;52.104;4.268;2024-02-04T02:24:58;102284.69;;;9.08;87.10
76424;BME280;65257;52.104;4.268;2024-02-04T02:27:26;102280.50;;;9.04;87.36
76424;BME280;65257;52.104;4.268;2024-02-04T02:29:52;102280.78;;;8.99;87.06
76424;BME280;65257;52.104;4.268;2024-02-04T02:32:30;102279.84;;;9.00;87.25
76424;BME280;65257;52.104;4.268;2024-02-04T02:34:55;102263.94;;;9.00;87.60
76424;BME280;65257;52.104;4.268;2024-02-04T02:37:36;102276.22;;;9.01;87.29
76424;BME280;65257;52.104;4.268;2024-02-04T02:40:06;102278.81;;;9.03;87.38
76424;BME280;65257;52.104;4.268;2024-02-04T02:42:33;102279.56;;;9.05;87.24
76424;BME280;65257;52.104;4.268;2024-02-04T02:45:01;102286.59;;;9.06;87.34
76424;BME280;65257;52.104;4.268;2024-02-04T02:47:31;102284.03;;;9.04;87.09
76424;BME280;65257;52.104;4.268;2024-02-04T02:49:57;102290.88;;;9.08;87.24
76424;BME280;65257;52.104;4.268;2024-02-04T02:52:23;102288.22;;;9.08;87.54
76424;BME280;65257;52.104;4.268;2024-02-04T02:54:48;102279.47;;;9.06;87.24
76424;BME280;65257;52.104;4.268;2024-02-04T02:57:14;102283.09;;;9.05;86.97
76424;BME280;65257;52.104;4.268;2024-02-04T02:59:39;102276.00;;;9.06;87.42
76424;BME280;65257;52.104;4.268;2024-02-04T03:02:04;102280.44;;;9.05;86.95
76424;BME280;65257;52.104;4.268;2024-02-04T03:04:30;102273.34;;;9.06;87.25
76424;BME280;65257;52.104;4.268;2024-02-04T03:06:55;102275.78;;;9.09;87.00
76424;BME280;65257;52.104;4.268;2024-02-04T03:09:26;102270.41;;;9.10;86.90
76424;BME280;65257;52.104;4.268;2024-02-04T03:11:52;102273.91;;;9.11;87.27
76424;BME280;65257;52.104;4.268;2024-02-04T03:14:19;102257.03;;;9.12;86.75
76424;BME280;65257;52.104;4.268;2024-02-04T03:16:45;102258.75;;;9.13;86.92
76424;BME280;65257;52.104;4.268;2024-02-04T03:19:11;102261.41;;;9.13;86.70
76424;BME280;65257;52.104;4.268;2024-02-04T03:21:36;102248.19;;;9.11;86.84
76424;BME280;65257;52.104;4.268;2024-02-04T03:24:02;102254.38;;;9.12;86.87
76424;BME280;65257;52.104;4.268;2024-02-04T03:26:27;102258.06;;;9.09;86.45
76424;BME280;65257;52.104;4.268;2024-02-04T03:28:52;102262.50;;;9.09;86.59
76424;BME280;65257;52.104;4.268;2024-02-04T03:31:22;102275.72;;;9.10;87.00
76424;BME280;65257;52.104;4.268;2024-02-04T03:33:48;102275.72;;;9.10;86.79
76424;BME280;65257;52.104;4.268;2024-02-04T03:36:22;102261.56;;;9.10;87.12
76424;BME280;65257;52.104;4.268;2024-02-04T03:38:49;102265.16;;;9.09;86.72
76424;BME280;65257;52.104;4.268;2024-02-04T03:41:16;102275.72;;;9.10;86.79
76424;BME280;65257;52.104;4.268;2024-02-04T03:43:41;102270.41;;;9.10;86.96
76424;BME280;65257;52.104;4.268;2024-02-04T03:46:07;102260.72;;;9.09;86.88
76424;BME280;65257;52.104;4.268;2024-02-04T03:48:32;102265.94;;;9.11;87.08
76424;BME280;65257;52.104;4.268;2024-02-04T03:50:59;102277.50;;;9.10;87.03
76424;BME280;65257;52.104;4.268;2024-02-04T03:53:33;102294.34;;;9.09;87.11
76424;BME280;65257;52.104;4.268;2024-02-04T03:55:59;102268.78;;;9.08;87.09
76424;BME280;65257;52.104;4.268;2024-02-04T03:58:27;102263.47;;;9.08;87.17
76424;BME280;65257;52.104;4.268;2024-02-04T04:00:56;102265.25;;;9.07;87.02
76424;BME280;65257;52.104;4.268;2024-02-04T04:03:26;102252.09;;;9.06;86.86
76424;BME280;65257;52.104;4.268;2024-02-04T04:05:53;102237.00;;;9.06;86.97
76424;BME280;65257;52.104;4.268;2024-02-04T04:08:21;102239.59;;;9.08;87.05
76424;BME280;65257;52.104;4.268;2024-02-04T04:10:47;102235.97;;;9.09;87.08
76424;BME280;65257;52.104;4.268;2024-02-04T04:13:15;102230.75;;;9.07;87.07
76424;BME280;65257;52.104;4.268;2024-02-04T04:15:40;102233.31;;;9.09;87.05
76424;BME280;65257;52.104;4.268;2024-02-04T04:18:10;102235.03;;;9.10;87.21
76424;BME280;65257;52.104;4.268;2024-02-04T04:20:40;102229.72;;;9.10;86.93
76424;BME280;65257;52.104;4.268;2024-02-04T04:23:06;102230.66;;;9.09;86.75
76424;BME280;65257;52.104;4.268;2024-02-04T04:25:31;102228.88;;;9.09;86.78
76424;BME280;65257;52.104;4.268;2024-02-04T04:27:57;102220.91;;;9.09;86.76
76424;BME280;65257;52.104;4.268;2024-02-04T04:30:23;102228.00;;;9.09;86.74
76424;BME280;65257;52.104;4.268;2024-02-04T04:32:49;102233.25;;;9.10;87.38
76424;BME280;65257;52.104;4.268;2024-02-04T04:35:14;102226.97;;;9.11;87.22
76424;BME280;65257;52.104;4.268;2024-02-04T04:37:42;102221.66;;;9.11;86.84
76424;BME280;65257;52.104;4.268;2024-02-04T04:40:09;102219.09;;;9.10;87.15
76424;BME280;65257;52.104;4.268;2024-02-04T04:42:38;102225.56;;;9.06;86.85
76424;BME280;65257;52.104;4.268;2024-02-04T04:45:08;102224.69;;;9.05;86.99
76424;BME280;65257;52.104;4.268;2024-02-04T04:47:37;102236.06;;;9.07;86.62
76424;BME280;65257;52.104;4.268;2024-02-04T04:50:06;102229.91;;;9.07;87.04
76424;BME280;65257;52.104;4.268;2024-02-04T04:52:31;102199.09;;;9.04;86.99
76424;BME280;65257;52.104;4.268;2024-02-04T04:55:00;102216.81;;;9.04;87.12
76424;BME280;65257;52.104;4.268;2024-02-04T04:57:25;102204.59;;;9.01;87.06
76424;BME280;65257;52.104;4.268;2024-02-04T04:59:51;102208.19;;;9.00;86.94
76424;BME280;65257;52.104;4.268;2024-02-04T05:02:16;102224.94;;;9.01;86.97
76424;BME280;65257;52.104;4.268;2024-02-04T05:04:43;102217.97;;;9.00;87.08
76424;BME280;65257;52.104;4.268;2024-02-04T05:07:12;102224.13;;;9.00;86.76
76424;BME280;65257;52.104;4.268;2024-02-04T05:09:38;102209.13;;;8.99;86.61
76424;BME280;65257;52.104;4.268;2024-02-04T05:12:13;102200.41;;;8.97;86.98
76424;BME280;65257;52.104;4.268;2024-02-04T05:14:38;102197.75;;;8.97;87.20
76424;BME280;65257;52.104;4.268;2024-02-04T05:17:04;102186.19;;;8.98;86.82
76424;BME280;65257;52.104;4.268;2024-02-04T05:19:31;102178.34;;;8.97;87.13
76424;BME280;65257;52.104;4.268;2024-02-04T05:21:59;102186.28;;;8.97;87.01
76424;BME280;65257;52.104;4.268;2024-02-04T05:24:25;102187.91;;;8.99;86.90
76424;BME280;65257;52.104;4.268;2024-02-04T05:26:51;102181.66;;;9.00;86.92
76424;BME280;65257;52.104;4.268;2024-02-04T05:29:16;102198.34;;;9.02;87.24
76424;BME280;65257;52.104;4.268;2024-02-04T05:31:43;102198.25;;;9.04;86.96
76424;BME280;65257;52.104;4.268;2024-02-04T05:34:08;102206.19;;;9.04;87.29
76424;BME280;65257;52.104;4.268;2024-02-04T05:36:37;102188.59;;;9.03;86.79
76424;BME280;65257;52.104;4.268;2024-02-04T05:39:14;102178.16;;;9.00;87.37
76424;BME280;65257;52.104;4.268;2024-02-04T05:41:40;102171.41;;;8.94;87.05
76424;BME280;65257;52.104;4.268;2024-02-04T05:44:09;102166.38;;;8.90;87.36
76424;BME280;65257;52.104;4.268;2024-02-04T05:46:35;102169.50;;;8.82;87.04
76424;BME280;65257;52.104;4.268;2024-02-04T05:49:01;102176.03;;;8.77;87.34
76424;BME280;65257;52.104;4.268;2024-02-04T05:51:27;102168.31;;;8.72;87.56
76424;BME280;65257;52.104;4.268;2024-02-04T05:53:52;102165.94;;;8.68;87.32
76424;BME280;65257;52.104;4.268;2024-02-04T05:56:22;102168.69;;;8.66;87.30
76424;BME280;65257;52.104;4.268;2024-02-04T05:58:48;102165.25;;;8.64;87.34
76424;BME280;65257;52.104;4.268;2024-02-04T06:01:15;102165.25;;;8.64;87.91
76424;BME280;65257;52.104;4.268;2024-02-04T06:03:44;102159.97;;;8.64;87.61
76424;BME280;65257;52.104;4.268;2024-02-04T06:06:19;102152.97;;;8.63;87.69
76424;BME280;65257;52.104;4.268;2024-02-04T06:08:46;102157.31;;;8.64;87.95
76424;BME280;65257;52.104;4.268;2024-02-04T06:11:21;102154.66;;;8.64;87.88
76424;BME280;65257;52.104;4.268;2024-02-04T06:13:46;102151.16;;;8.64;88.09
76424;BME280;65257;52.104;4.268;2024-02-04T06:16:16;102154.59;;;8.66;88.44
76424;BME280;65257;52.104;4.268;2024-02-04T06:18:45;102150.03;;;8.68;88.52
76424;BME280;65257;52.104;4.268;2024-02-04T06:21:13;102150.03;;;8.68;88.54
76424;BME280;65257;52.104;4.268;2024-02-04T06:23:39;102151.66;;;8.70;88.18
76424;BME280;65257;52.104;4.268;2024-02-04T06:26:09;102150.72;;;8.71;88.40
76424;BME280;65257;52.104;4.268;2024-02-04T06:28:35;102155.16;;;8.71;88.57
76424;BME280;65257;52.104;4.268;2024-02-04T06:31:00;102161.31;;;8.71;88.23
76424;BME280;65257;52.104;4.268;2024-02-04T06:33:26;102155.16;;;8.71;88.40
76424;BME280;65257;52.104;4.268;2024-02-04T06:35:54;102153.25;;;8.73;88.78
76424;BME280;65257;52.104;4.268;2024-02-04T06:38:19;102153.25;;;8.73;88.45
76424;BME280;65257;52.104;4.268;2024-02-04T06:40:45;102173.63;;;8.72;88.79
76424;BME280;65257;52.104;4.268;2024-02-04T06:43:10;102169.47;;;8.68;88.19
76424;BME280;65257;52.104;4.268;2024-02-04T06:45:36;102168.78;;;8.65;88.30
76424;BME280;65257;52.104;4.268;2024-02-04T06:48:05;102174.19;;;8.63;88.36
76424;BME280;65257;52.104;4.268;2024-02-04T06:50:31;102165.38;;;8.63;88.75
76424;BME280;65257;52.104;4.268;2024-02-04T06:52:59;102165.47;;;8.61;88.53
76424;BME280;65257;52.104;4.268;2024-02-04T06:55:24;102165.72;;;8.56;88.60
76424;BME280;65257;52.104;4.268;2024-02-04T06:57:50;102159.66;;;8.54;88.56
76424;BME280;65257;52.104;4.268;2024-02-04T07:00:15;102162.41;;;8.53;88.31
76424;BME280;65257;52.104;4.268;2024-02-04T07:02:41;102142.88;;;8.54;88.39
76424;BME280;65257;52.104;4.268;2024-02-04T07:05:10;102131.16;;;8.58;88.39
76424;BME280;65257;52.104;4.268;2024-02-04T07:07:36;102144.91;;;8.65;88.46
76424;BME280;65257;52.104;4.268;2024-02-04T07:10:02;102143.78;;;8.69;88.49
76424;BME280;65257;52.104;4.268;2024-02-04T07:12:27;102135.06;;;8.67;88.39
76424;BME280;65257;52.104;4.268;2024-02-04T07:14:52;102141.50;;;8.63;88.56
76424;BME280;65257;52.104;4.268;2024-02-04T07:17:21;102137.22;;;8.60;88.35
76424;BME280;65257;52.104;4.268;2024-02-04T07:19:46;102134.75;;;8.57;87.96
76424;BME280;65257;52.104;4.268;2024-02-04T07:22:15;102134.06;;;8.53;88.22
76424;BME280;65257;52.104;4.268;2024-02-04T07:24:41;102138.63;;;8.51;87.98
76424;BME280;65257;52.104;4.268;2024-02-04T07:27:06;102145.72;;;8.51;88.33
76424;BME280;65257;52.104;4.268;2024-02-04T07:29:31;102147.59;;;8.49;88.08
76424;BME280;65257;52.104;4.268;2024-02-04T07:31:56;102138.78;;;8.48;88.56
76424;BME280;65257;52.104;4.268;2024-02-04T07:34:23;102146.69;;;8.50;88.39
76424;BME280;65257;52.104;4.268;2024-02-04T07:36:49;102143.16;;;8.49;88.46
76424;BME280;65257;52.104;4.268;2024-02-04T07:39:17;102136.06;;;8.50;88.34
76424;BME280;65257;52.104;4.268;2024-02-04T07:41:42;102135.97;;;8.51;88.58
76424;BME280;65257;52.104;4.268;2024-02-04T07:44:08;102127.09;;;8.52;88.58
76424;BME280;65257;52.104;4.268;2024-02-04T07:46:37;102130.59;;;8.53;88.24
76424;BME280;65257;52.104;4.268;2024-02-04T07:49:03;102131.41;;;8.53;88.33
76424;BME280;65257;52.104;4.268;2024-02-04T07:51:28;102134.06;;;8.53;88.60
76424;BME280;65257;52.104;4.268;2024-02-04T07:53:54;102135.03;;;8.52;88.37
76424;BME280;65257;52.104;4.268;2024-02-04T07:56:19;102137.69;;;8.52;88.17
76424;BME280;65257;52.104;4.268;2024-02-04T07:58:47;102137.59;;;8.54;88.36
76424;BME280;65257;52.104;4.268;2024-02-04T08:01:12;102136.53;;;8.56;88.28
76424;BME280;65257;52.104;4.268;2024-02-04T08:03:38;102138.28;;;8.57;88.28
76424;BME280;65257;52.104;4.268;2024-02-04T08:06:03;102137.22;;;8.60;88.72
76424;BME280;65257;52.104;4.268;2024-02-04T08:08:29;102145.75;;;8.65;88.87
76424;BME280;65257;52.104;4.268;2024-02-04T08:10:54;102150.13;;;8.66;88.88
76424;BME280;65257;52.104;4.268;2024-02-04T08:13:20;102152.63;;;8.69;88.91
76424;BME280;65257;52.104;4.268;2024-02-04T08:15:45;102148.94;;;8.72;88.43
76424;BME280;65257;52.104;4.268;2024-02-04T08:18:11;102153.94;;;8.76;88.67
76424;BME280;65257;52.104;4.268;2024-02-04T08:20:36;102142.19;;;8.80;88.51
76424;BME280;65257;52.104;4.268;2024-02-04T08:23:01;102143.63;;;8.86;88.90
76424;BME280;65257;52.104;4.268;2024-02-04T08:25:27;102141.66;;;8.89;88.49
76424;BME280;65257;52.104;4.268;2024-02-04T08:27:55;102132.53;;;8.93;88.87
76424;BME280;65257;52.104;4.268;2024-02-04T08:30:21;102125.38;;;8.95;88.47
76424;BME280;65257;52.104;4.268;2024-02-04T08:32:46;102129.72;;;8.96;88.61
76424;BME280;65257;52.104;4.268;2024-02-04T08:35:12;102119.97;;;8.97;88.45
76424;BME280;65257;52.104;4.268;2024-02-04T08:37:37;102118.16;;;8.97;88.77
76424;BME280;65257;52.104;4.268;2024-02-04T08:40:05;102120.72;;;8.99;88.23
76424;BME280;65257;52.104;4.268;2024-02-04T08:42:31;102126.00;;;8.99;88.44
76424;BME280;65257;52.104;4.268;2024-02-04T08:44:56;102126.78;;;9.01;88.38
76424;BME280;65257;52.104;4.268;2024-02-04T08:47:25;102123.19;;;9.02;88.68
76424;BME280;65257;52.104;4.268;2024-02-04T08:49:51;102124.78;;;9.04;88.20
76424;BME280;65257;52.104;4.268;2024-02-04T08:52:19;102119.59;;;9.03;88.25
76424;BME280;65257;52.104;4.268;2024-02-04T08:54:45;102125.66;;;9.05;88.00
76424;BME280;65257;52.104;4.268;2024-02-04T08:57:14;102121.94;;;9.07;88.12
76424;BME280;65257;52.104;4.268;2024-02-04T08:59:40;102132.56;;;9.07;88.43
76424;BME280;65257;52.104;4.268;2024-02-04T09:02:06;102141.22;;;9.11;88.05
76424;BME280;65257;52.104;4.268;2024-02-04T09:04:32;102126.03;;;9.13;87.82
76424;BME280;65257;52.104;4.268;2024-02-04T09:07:05;102132.09;;;9.15;87.90
76424;BME280;65257;52.104;4.268;2024-02-04T09:09:31;102116.84;;;9.18;88.11
76424;BME280;65257;52.104;4.268;2024-02-04T09:11:56;102104.13;;;9.23;87.90
76424;BME280;65257;52.104;4.268;2024-02-04T09:14:22;102114.66;;;9.25;87.88
76424;BME280;65257;52.104;4.268;2024-02-04T09:16:47;102113.53;;;9.29;87.63
76424;BME280;65257;52.104;4.268;2024-02-04T09:19:13;102121.38;;;9.31;88.12
76424;BME280;65257;52.104;4.268;2024-02-04T09:21:39;102123.72;;;9.35;87.81
76424;BME280;65257;52.104;4.268;2024-02-04T09:24:05;102127.06;;;9.39;88.04
76424;BME280;65257;52.104;4.268;2024-02-04T09:26:30;102143.47;;;9.45;87.81
76424;BME280;65257;52.104;4.268;2024-02-04T09:28:58;102129.16;;;9.48;87.44
76424;BME280;65257;52.104;4.268;2024-02-04T09:31:25;102127.25;;;9.50;87.83
76424;BME280;65257;52.104;4.268;2024-02-04T09:33:50;102141.19;;;9.53;87.76
76424;BME280;65257;52.104;4.268;2024-02-04T09:36:19;102125.16;;;9.55;87.96
76424;BME280;65257;52.104;4.268;2024-02-04T09:38:47;102118.03;;;9.55;87.88
76424;BME280;65257;52.104;4.268;2024-02-04T09:41:15;102126.94;;;9.54;87.48
76424;BME280;65257;52.104;4.268;2024-02-04T09:43:47;102132.38;;;9.53;87.33
76424;BME280;65257;52.104;4.268;2024-02-04T09:46:13;102133.50;;;9.49;87.56
76424;BME280;65257;52.104;4.268;2024-02-04T09:48:40;102130.28;;;9.44;87.51
76424;BME280;65257;52.104;4.268;2024-02-04T09:51:06;102131.31;;;9.41;87.65
76424;BME280;65257;52.104;4.268;2024-02-04T09:53:34;102136.75;;;9.40;87.58
76424;BME280;65257;52.104;4.268;2024-02-04T09:56:11;102127.94;;;9.39;87.71
76424;BME280;65257;52.104;4.268;2024-02-04T09:58:38;102132.38;;;9.39;87.25
76424;BME280;65257;52.104;4.268;2024-02-04T10:01:07;102124.59;;;9.36;87.63
76424;BME280;65257;52.104;4.268;2024-02-04T10:03:38;102132.56;;;9.36;87.61
76424;BME280;65257;52.104;4.268;2024-02-04T10:06:03;102133.22;;;9.39;87.71
76424;BME280;65257;52.104;4.268;2024-02-04T10:08:29;102117.75;;;9.46;87.41
76424;BME280;65257;52.104;4.268;2024-02-04T10:10:54;102114.47;;;9.42;87.63
76424;BME280;65257;52.104;4.268;2024-02-04T10:13:20;102115.41;;;9.41;87.35
76424;BME280;65257;52.104;4.268;2024-02-04T10:15:47;102120.72;;;9.41;87.47
76424;BME280;65257;52.104;4.268;2024-02-04T10:18:13;102118.06;;;9.41;87.24
76424;BME280;65257;52.104;4.268;2024-02-04T10:20:38;102116.16;;;9.43;86.75
76424;BME280;65257;52.104;4.268;2024-02-04T10:23:05;102122.97;;;9.47;87.11
76424;BME280;65257;52.104;4.268;2024-02-04T10:25:30;102128.09;;;9.50;86.70
76424;BME280;65257;52.104;4.268;2024-02-04T10:27:56;102129.03;;;9.49;86.50
76424;BME280;65257;52.104;4.268;2024-02-04T10:30:23;102125.25;;;9.53;86.19
76424;BME280;65257;52.104;4.268;2024-02-04T10:32:55;102108.16;;;9.57;86.37
76424;BME280;65257;52.104;4.268;2024-02-04T10:35:21;102110.53;;;9.62;86.07
76424;BME280;65257;52.104;4.268;2024-02-04T10:37:49;102120.56;;;9.71;86.26
76424;BME280;65257;52.104;4.268;2024-02-04T10:40:16;102112.22;;;9.77;85.87
76424;BME280;65257;52.104;4.268;2024-02-04T10:42:45;102118.91;;;9.82;86.11
76424;BME280;65257;52.104;4.268;2024-02-04T10:45:12;102121.28;;;9.87;86.06
76424;BME280;65257;52.104;4.268;2024-02-04T10:47:56;102116.53;;;9.92;85.47
76424;BME280;65257;52.104;4.268;2024-02-04T10:50:24;102128.47;;;9.99;85.49
76424;BME280;65257;52.104;4.268;2024-02-04T10:52:58;102115.63;;;10.06;85.12
76424;BME280;65257;52.104;4.268;2024-02-04T10:55:29;102119.63;;;10.13;85.01
76424;BME280;65257;52.104;4.268;2024-02-04T10:57:56;102128.88;;;10.20;84.90
76424;BME280;65257;52.104;4.268;2024-02-04T11:00:22;102120.06;;;10.19;85.09
76424;BME280;65257;52.104;4.268;2024-02-04T11:02:52;102121.97;;;10.17;84.80
76424;BME280;65257;52.104;4.268;2024-02-04T11:05:23;102116.66;;;10.17;84.62
76424;BME280;65257;52.104;4.268;2024-02-04T11:07:52;102119.03;;;10.22;84.83
76424;BME280;65257;52.104;4.268;2024-02-04T11:10:18;102108.88;;;10.54;84.16
76424;BME280;65257;52.104;4.268;2024-02-04T11:12:45;102101.25;;;10.99;83.43
76424;BME280;65257;52.104;4.268;2024-02-04T11:15:14;102110.69;;;11.29;82.69
76424;BME280;65257;52.104;4.268;2024-02-04T11:21:03;102101.66;;;11.67;81.34
76424;BME280;65257;52.104;4.268;2024-02-04T11:26:41;102091.38;;;11.87;80.78
76424;BME280;65257;52.104;4.268;2024-02-04T11:29:11;102102.78;;;11.89;79.46
76424;BME280;65257;52.104;4.268;2024-02-04T11:31:40;102094.69;;;11.90;79.81
76424;BME280;65257;52.104;4.268;2024-02-04T11:34:06;102091.38;;;11.87;79.62
76424;BME280;65257;52.104;4.268;2024-02-04T11:36:38;102091.22;;;11.77;78.96
76424;BME280;65257;52.104;4.268;2024-02-04T11:39:13;102090.81;;;11.71;79.50
76424;BME280;65257;52.104;4.268;2024-02-04T11:41:48;102068.81;;;11.67;79.23
76424;BME280;65257;52.104;4.268;2024-02-04T11:44:21;102082.94;;;11.69;79.64
76424;BME280;65257;52.104;4.268;2024-02-04T11:46:47;102083.00;;;11.67;78.59
76424;BME280;65257;52.104;4.268;2024-02-04T11:49:19;102082.41;;;11.51;78.77
76424;BME280;65257;52.104;4.268;2024-02-04T11:51:48;102083.09;;;11.42;79.08
76424;BME280;65257;52.104;4.268;2024-02-04T11:54:17;102095.56;;;11.29;79.44
76424;BME280;65257;52.104;4.268;2024-02-04T11:56:45;102088.66;;;11.14;79.53
76424;BME280;65257;52.104;4.268;2024-02-04T11:59:21;102089.75;;;10.99;80.09
76424;BME280;65257;52.104;4.268;2024-02-04T12:02:05;102077.50;;;10.84;80.85
76424;BME280;65257;52.104;4.268;2024-02-04T12:04:31;102068.97;;;10.91;80.53
76424;BME280;65257;52.104;4.268;2024-02-04T12:06:58;102077.88;;;11.28;79.64
76424;BME280;65257;52.104;4.268;2024-02-04T12:09:26;102082.97;;;11.44;79.68
76424;BME280;65257;52.104;4.268;2024-02-04T12:11:53;102077.28;;;11.48;79.31
76424;BME280;65257;52.104;4.268;2024-02-04T12:14:19;102069.44;;;11.47;79.32
76424;BME280;65257;52.104;4.268;2024-02-04T12:16:44;102062.59;;;11.55;78.88
76424;BME280;65257;52.104;4.268;2024-02-04T12:19:11;102058.84;;;11.58;78.83
76424;BME280;65257;52.104;4.268;2024-02-04T12:21:37;102055.66;;;11.53;79.16
76424;BME280;65257;52.104;4.268;2024-02-04T12:24:05;102059.97;;;11.43;78.74
76424;BME280;65257;52.104;4.268;2024-02-04T12:26:32;102060.53;;;11.23;79.20
76424;BME280;65257;52.104;4.268;2024-02-04T12:28:58;102049.16;;;11.08;79.70
76424;BME280;65257;52.104;4.268;2024-02-04T12:31:27;102062.91;;;11.02;80.02
76424;BME280;65257;52.104;4.268;2024-02-04T12:33:58;102054.91;;;11.02;80.11
76424;BME280;65257;52.104;4.268;2024-02-04T12:36:27;102065.25;;;10.94;80.09
76424;BME280;65257;52.104;4.268;2024-02-04T12:38:54;102071.97;;;10.87;79.97
76424;BME280;65257;52.104;4.268;2024-02-04T12:41:21;102065.47;;;10.78;79.88
76424;BME280;65257;52.104;4.268;2024-02-04T12:44:07;102053.56;;;10.71;79.99
76424;BME280;65257;52.104;4.268;2024-02-04T12:46:33;102058.34;;;10.66;80.41
76424;BME280;65257;52.104;4.268;2024-02-04T12:48:59;102058.03;;;10.58;80.90
76424;BME280;65257;52.104;4.268;2024-02-04T12:54:08;102043.53;;;10.50;80.87
76424;BME280;65257;52.104;4.268;2024-02-04T12:59:29;102037.03;;;10.54;80.63
76424;BME280;65257;52.104;4.268;2024-02-04T13:02:14;102042.47;;;10.52;80.90
76424;BME280;65257;52.104;4.268;2024-02-04T13:04:41;102042.69;;;10.49;80.60
76424;BME280;65257;52.104;4.268;2024-02-04T13:07:12;102037.38;;;10.49;80.69
76424;BME280;65257;52.104;4.268;2024-02-04T13:09:43;102015.75;;;10.54;80.70
76424;BME280;65257;52.104;4.268;2024-02-04T13:12:14;102018.75;;;10.62;80.41
76424;BME280;65257;52.104;4.268;2024-02-04T13:14:42;102027.03;;;10.70;80.48